Time;durP1;ratioP1;P1;durP2;ratioP2;P2;SDS_P1;SDS_P2;PMS_P1;PMS_P2;Temp;Humidity;BMP_temperature;BMP_pressure;BME280_temperature;BME280_humidity;BME280_pressure;Samples;Min_cycle;Max_cycle;Signal;HPM_P1;HPM_P2
2021/07/03 00:00:47;;;;;;;1.25;0.95;;;;;;;15.39;83.89;92983.41;5041398;28;20049;-83
2021/07/03 00:03:15;;;;;;;0.80;0.80;;;;;;;15.40;84.20;92968.63;5039451;28;20041;-82
2021/07/03 00:05:42;;;;;;;3.40;0.70;;;;;;;15.38;83.73;92966.31;5040278;28;20485;-83
2021/07/03 00:08:09;;;;;;;1.13;0.80;;;;;;;15.35;83.84;92962.41;5038897;28;20045;-83
2021/07/03 00:10:36;;;;;;;1.23;0.98;;;;;;;15.40;83.53;92977.19;5031185;28;20421;-82
2021/07/03 00:13:03;;;;;;;1.08;0.82;;;;;;;15.39;83.59;92970.47;5031039;28;20053;-84
2021/07/03 00:15:30;;;;;;;1.20;0.77;;;;;;;15.40;83.29;92961.66;5030909;28;20053;-83
2021/07/03 00:17:57;;;;;;;1.58;1.08;;;;;;;15.37;83.26;92977.69;5031224;28;20099;-83
2021/07/03 00:20:27;;;;;;;2.63;1.48;;;;;;;15.23;84.00;92970.31;5031156;28;20476;-83
2021/07/03 00:22:54;;;;;;;1.05;0.90;;;;;;;15.33;83.55;92979.22;5031020;28;20057;-83
2021/07/03 00:25:22;;;;;;;1.55;1.23;;;;;;;15.30;83.75;92982.28;5030910;28;20049;-83
2021/07/03 00:27:49;;;;;;;1.60;0.88;;;;;;;15.29;83.64;92981.50;5012130;28;20064;-83
2021/07/03 00:30:16;;;;;;;1.50;1.02;;;;;;;15.24;83.71;92981.44;5010913;28;20121;-83
2021/07/03 00:32:43;;;;;;;2.65;1.70;;;;;;;15.23;83.92;92982.50;5011268;28;20103;-83
2021/07/03 00:35:11;;;;;;;1.13;0.75;;;;;;;15.15;83.18;92988.09;5010990;28;20046;-83
2021/07/03 00:37:39;;;;;;;1.05;0.70;;;;;;;14.93;83.48;92961.22;5011053;28;20445;-83
2021/07/03 00:40:07;;;;;;;1.10;0.90;;;;;;;15.05;83.91;92991.34;5010929;28;20548;-83
2021/07/03 00:42:34;;;;;;;1.58;1.33;;;;;;;15.05;84.34;92997.28;5010936;28;20050;-83
2021/07/03 00:45:01;;;;;;;3.25;1.35;;;;;;;15.01;84.34;92995.44;5011111;28;20054;-83
2021/07/03 00:47:28;;;;;;;1.65;0.80;;;;;;;14.97;84.57;92989.97;5011066;28;20050;-83
2021/07/03 00:49:56;;;;;;;0.95;0.70;;;;;;;14.98;84.76;92999.28;5011086;28;20391;-83
2021/07/03 00:52:23;;;;;;;1.00;0.73;;;;;;;14.81;84.76;92971.69;5010906;28;20096;-83
2021/07/03 00:54:52;;;;;;;2.53;1.23;;;;;;;14.91;85.32;92980.59;5010914;28;20057;-82
2021/07/03 00:57:19;;;;;;;1.50;0.95;;;;;;;14.86;85.79;92988.28;5012881;28;20046;-83
2021/07/03 00:59:48;;;;;;;1.20;1.10;;;;;;;14.74;85.85;92978.84;5014987;28;20046;-83
2021/07/03 01:02:18;;;;;;;1.42;1.00;;;;;;;14.86;85.19;92988.28;5014901;28;20095;-83
2021/07/03 01:04:45;;;;;;;5.07;1.15;;;;;;;14.81;85.40;92994.97;5014775;28;20050;-83
2021/07/03 01:07:13;;;;;;;2.17;1.20;;;;;;;14.72;85.79;92982.69;5014639;28;20050;-83
2021/07/03 01:09:40;;;;;;;1.50;1.08;;;;;;;14.72;86.22;92982.69;5014636;28;20104;-83
2021/07/03 01:12:10;;;;;;;1.00;0.90;;;;;;;14.62;85.86;92971.19;5014494;28;20045;-83
2021/07/03 01:14:42;;;;;;;0.65;0.50;;;;;;;14.60;86.34;92993.13;5014515;28;20065;-83
2021/07/03 01:17:09;;;;;;;1.30;0.80;;;;;;;14.56;86.94;92990.25;5014643;28;20054;-82
2021/07/03 01:19:36;;;;;;;3.35;1.02;;;;;;;14.34;87.78;92975.50;5014413;28;20073;-83
2021/07/03 01:22:06;;;;;;;2.38;1.10;;;;;;;14.26;89.04;92979.25;5014365;28;20509;-83
2021/07/03 01:24:33;;;;;;;1.30;1.20;;;;;;;14.38;88.35;92986.13;5014613;28;20056;-83
2021/07/03 01:27:01;;;;;;;0.90;0.75;;;;;;;14.47;87.48;92981.31;5014169;28;20080;-83
2021/07/03 01:29:28;;;;;;;1.13;0.80;;;;;;;14.41;88.62;92981.25;5014246;28;20046;-82
2021/07/03 01:31:57;;;;;;;1.10;0.80;;;;;;;14.37;89.17;92987.94;5014208;28;20489;-83
2021/07/03 01:34:26;;;;;;;5.78;3.17;;;;;;;14.16;89.53;92954.06;5014150;28;20046;-83
2021/07/03 01:36:53;;;;;;;4.68;1.83;;;;;;;14.39;88.51;92979.94;5014064;28;20398;-82
2021/07/03 01:39:23;;;;;;;1.45;1.05;;;;;;;14.36;88.57;92962.34;5014309;28;20050;-83
2021/07/03 01:41:50;;;;;;;1.02;0.80;;;;;;;14.40;88.92;92976.34;5014255;28;20057;-83
2021/07/03 01:44:23;;;;;;;1.10;0.93;;;;;;;14.27;89.60;92965.31;5014172;28;20108;-83
2021/07/03 01:46:50;;;;;;;4.28;2.25;;;;;;;14.05;90.11;92939.47;5014186;28;20132;-83
2021/07/03 01:49:17;;;;;;;2.97;1.45;;;;;;;14.28;89.62;92969.50;5013879;28;20446;-83
2021/07/03 01:51:44;;;;;;;2.65;1.52;;;;;;;14.26;89.74;92971.50;5013877;28;20064;-83
2021/07/03 01:54:11;;;;;;;2.10;0.80;;;;;;;14.26;90.11;92979.25;5013785;28;20100;-83
2021/07/03 01:56:41;;;;;;;2.10;1.27;;;;;;;14.15;90.04;92983.50;5013804;28;20050;-83
2021/07/03 01:59:08;;;;;;;2.33;1.38;;;;;;;14.03;90.72;92978.44;5013624;28;20144;-83
2021/07/03 02:01:35;;;;;;;1.30;1.00;;;;;;;14.05;91.60;92972.25;5013675;28;20469;-83
2021/07/03 02:04:02;;;;;;;1.77;1.00;;;;;;;13.93;90.41;92944.72;5013487;28;20050;-83
2021/07/03 02:06:29;;;;;;;1.35;1.05;;;;;;;14.13;90.58;92958.94;5013792;28;20042;-82
2021/07/03 02:08:56;;;;;;;1.27;1.10;;;;;;;14.19;89.83;92962.34;5012657;28;20046;-83
2021/07/03 02:11:23;;;;;;;1.35;0.95;;;;;;;14.19;89.64;92963.16;5013653;28;20057;-83
2021/07/03 02:13:51;;;;;;;1.77;1.38;;;;;;;14.26;89.55;92963.75;5013033;28;20048;-82
2021/07/03 02:16:18;;;;;;;2.45;1.65;;;;;;;14.21;89.48;92965.50;5012402;28;20058;-83
2021/07/03 02:18:45;;;;;;;2.35;1.20;;;;;;;14.08;89.89;92951.13;5013288;28;20054;-83
2021/07/03 02:21:11;;;;;;;1.10;0.82;;;;;;;14.10;90.11;92970.53;5013475;28;20050;-83
2021/07/03 02:23:38;;;;;;;1.15;0.88;;;;;;;14.04;90.53;92958.56;5013229;28;20097;-83
2021/07/03 02:26:05;;;;;;;1.30;0.90;;;;;;;14.09;90.18;92957.84;5013265;28;20491;-83
2021/07/03 02:28:32;;;;;;;1.85;1.25;;;;;;;14.00;90.90;92960.06;5013230;28;20487;-85
2021/07/03 02:31:00;;;;;;;1.85;1.33;;;;;;;13.98;91.12;92967.25;5013085;28;20058;-83
2021/07/03 02:33:27;;;;;;;1.20;0.95;;;;;;;13.83;90.35;92947.94;5013307;28;20042;-83
2021/07/03 02:35:53;;;;;;;0.95;0.70;;;;;;;13.98;90.80;92982.75;5013060;28;20159;-82
2021/07/03 02:38:20;;;;;;;1.25;1.00;;;;;;;13.95;90.77;92993.53;5013086;28;20046;-83
2021/07/03 02:40:47;;;;;;;1.52;0.98;;;;;;;13.85;91.19;92974.28;5013089;28;20426;-83
2021/07/03 02:43:14;;;;;;;2.55;1.30;;;;;;;13.90;91.66;92989.84;5012918;28;20050;-83
2021/07/03 02:45:41;;;;;;;1.77;0.80;;;;;;;13.79;91.97;92988.13;5012712;28;20054;-83
2021/07/03 02:48:09;;;;;;;2.15;1.40;;;;;;;13.70;92.31;92985.16;5012729;28;20057;-83
2021/07/03 02:50:36;;;;;;;1.30;0.95;;;;;;;13.63;92.83;92977.59;5012829;28;20057;-83
2021/07/03 02:53:03;;;;;;;2.85;1.38;;;;;;;13.76;92.41;92986.81;5012953;28;20057;-83
2021/07/03 02:55:30;;;;;;;1.30;0.90;;;;;;;13.78;92.29;92994.31;5012712;28;20418;-83
2021/07/03 02:57:57;;;;;;;1.38;1.10;;;;;;;13.78;92.07;92998.72;5012560;28;20046;-82
2021/07/03 03:00:24;;;;;;;4.85;1.55;;;;;;;13.67;92.51;93005.50;5012473;28;20054;-83
2021/07/03 03:02:50;;;;;;;1.40;0.93;;;;;;;13.67;92.38;93014.03;5012463;28;20494;-83
2021/07/03 03:05:19;;;;;;;1.30;0.98;;;;;;;13.76;91.91;93009.28;5012410;28;20077;-83
2021/07/03 03:07:46;;;;;;;1.17;0.63;;;;;;;13.80;91.79;93018.09;5012765;28;20045;-83
2021/07/03 03:10:15;;;;;;;1.20;0.85;;;;;;;13.78;91.41;93017.56;5012486;28;20053;-83
2021/07/03 03:12:42;;;;;;;1.63;0.93;;;;;;;13.80;91.21;93019.91;5012002;28;20060;-82
2021/07/03 03:15:12;;;;;;;0.93;0.80;;;;;;;13.69;91.21;93021.53;5012458;28;20053;-83
2021/07/03 03:17:39;;;;;;;0.85;0.57;;;;;;;13.70;91.86;93025.69;5012452;28;20060;-83
2021/07/03 03:20:08;;;;;;;1.52;1.05;;;;;;;13.68;91.74;93017.38;5012061;28;20045;-82
2021/07/03 03:22:37;;;;;;;1.38;0.73;;;;;;;13.70;91.97;93021.31;5012683;28;20061;-83
2021/07/03 03:25:05;;;;;;;8.13;1.95;;;;;;;13.75;92.02;93016.22;5011928;28;20046;-83
2021/07/03 03:27:33;;;;;;;0.80;0.70;;;;;;;13.94;90.84;93022.97;5012570;28;20054;-83
2021/07/03 03:30:00;;;;;;;1.15;0.90;;;;;;;14.03;91.31;93026.72;5012422;28;20057;-83
2021/07/03 03:32:26;;;;;;;1.50;0.90;;;;;;;14.17;90.42;93029.78;5012202;28;20054;-83
2021/07/03 03:34:53;;;;;;;1.60;0.77;;;;;;;14.28;90.06;93020.38;5012065;28;20049;-83
2021/07/03 03:37:21;;;;;;;1.00;0.60;;;;;;;14.26;89.94;93030.94;5011889;28;20513;-82
2021/07/03 03:39:49;;;;;;;0.77;0.60;;;;;;;14.24;90.48;93027.81;5011735;28;20505;-83
2021/07/03 03:42:16;;;;;;;0.95;0.65;;;;;;;14.31;90.35;93027.66;5011999;28;20058;-83
2021/07/03 03:44:43;;;;;;;0.85;0.70;;;;;;;14.34;90.61;93024.59;5012067;28;20049;-82
2021/07/03 03:47:10;;;;;;;2.35;0.98;;;;;;;14.42;89.74;93021.59;5014307;28;20045;-83
2021/07/03 03:49:36;;;;;;;2.15;0.85;;;;;;;14.63;88.92;93026.25;5011749;28;20042;-83
2021/07/03 03:52:04;;;;;;;1.38;0.85;;;;;;;14.69;88.39;93028.66;5027388;28;20474;-83
2021/07/03 03:54:30;;;;;;;1.08;0.73;;;;;;;14.74;88.72;93027.94;5031171;28;20049;-83
2021/07/03 03:59:43;;;;;;;1.08;0.98;;;;;;;14.92;87.81;93026.13;5021429;28;20418;-83
2021/07/03 04:02:10;;;;;;;1.25;1.05;;;;;;;14.96;87.42;93035.72;5019073;28;20486;-83
2021/07/03 04:04:37;;;;;;;1.05;0.80;;;;;;;14.95;87.24;93023.06;5011565;28;20057;-83
2021/07/03 04:07:04;;;;;;;2.55;0.93;;;;;;;14.90;87.17;93013.41;5018684;28;20037;-83
2021/07/03 04:09:30;;;;;;;1.23;0.77;;;;;;;15.03;87.05;93021.84;5021642;28;20053;-82
2021/07/03 04:11:59;;;;;;;1.63;0.68;;;;;;;15.14;86.82;93025.31;5020332;28;20046;-83
2021/07/03 04:14:26;;;;;;;1.10;0.80;;;;;;;15.25;86.51;93027.00;5019736;28;20056;-83
2021/07/03 04:16:52;;;;;;;8.00;1.85;;;;;;;15.38;86.18;93025.84;5022946;28;20057;-83
2021/07/03 04:19:19;;;;;;;1.30;0.60;;;;;;;15.53;85.54;93022.63;5022715;28;20053;-82
2021/07/03 04:21:46;;;;;;;3.05;1.02;;;;;;;15.67;84.75;93025.59;5029244;28;20041;-83
2021/07/03 04:24:13;;;;;;;1.48;1.02;;;;;;;15.70;84.53;93022.50;5014518;28;20042;-83
2021/07/03 04:26:39;;;;;;;1.15;0.80;;;;;;;15.84;83.98;93030.63;5025394;28;20048;-84
2021/07/03 04:29:08;;;;;;;1.30;1.15;;;;;;;15.92;83.50;93026.06;5050805;28;20052;-83
2021/07/03 04:31:34;;;;;;;2.05;1.40;;;;;;;15.97;83.81;93026.88;5050171;28;20049;-83
2021/07/03 04:34:01;;;;;;;2.08;1.80;;;;;;;16.00;83.10;93028.19;5050520;28;20052;-83
2021/07/03 04:36:29;;;;;;;1.20;0.70;;;;;;;16.01;83.07;93024.56;5046582;28;20179;-82
2021/07/03 04:38:56;;;;;;;1.70;1.42;;;;;;;16.02;83.41;93039.88;5050912;28;20064;-82
2021/07/03 04:41:23;;;;;;;4.57;1.38;;;;;;;16.03;83.26;93038.09;5050685;28;20049;-83
2021/07/03 04:43:50;;;;;;;1.92;1.30;;;;;;;16.01;83.05;93024.56;5050492;28;20063;-83
2021/07/03 04:46:18;;;;;;;2.75;1.10;;;;;;;16.09;83.96;93038.88;5050450;28;20049;-83
2021/07/03 04:48:45;;;;;;;2.45;1.02;;;;;;;16.03;85.22;93041.44;5050427;28;20111;-83
2021/07/03 04:51:11;;;;;;;2.90;1.85;;;;;;;16.10;83.62;93041.25;5050710;28;20053;-83
2021/07/03 04:53:38;;;;;;;2.50;1.42;;;;;;;16.38;83.98;93051.56;5033904;28;20075;-83
2021/07/03 04:56:05;;;;;;;2.08;1.77;;;;;;;16.58;82.90;93035.34;5030722;28;20076;-83
2021/07/03 04:58:32;;;;;;;2.13;1.52;;;;;;;16.68;82.20;93032.78;5030356;28;20049;-84
2021/07/03 05:00:59;;;;;;;4.57;0.85;;;;;;;16.84;81.64;93040.63;5028412;28;20092;-84
2021/07/03 05:03:27;;;;;;;8.57;1.50;;;;;;;16.93;81.17;93026.16;5037392;28;20068;-83
2021/07/03 05:05:54;;;;;;;0.90;0.60;;;;;;;17.19;79.82;93043.66;5048044;28;20049;-83
2021/07/03 05:08:21;;;;;;;2.35;0.93;;;;;;;17.26;79.42;93028.63;5030407;28;20503;-83
2021/07/03 05:10:48;;;;;;;1.67;1.38;;;;;;;17.36;76.85;93035.69;5037689;28;20163;-83
2021/07/03 05:13:14;;;;;;;3.42;1.05;;;;;;;17.39;75.98;93031.78;5036331;28;20061;-83
2021/07/03 05:15:41;;;;;;;1.52;1.00;;;;;;;17.44;76.54;93035.16;5030199;28;20058;-83
2021/07/03 05:18:08;;;;;;;4.63;1.85;;;;;;;17.36;76.03;93033.09;5030653;28;20049;-83
2021/07/03 05:20:36;;;;;;;1.02;0.73;;;;;;;17.32;76.61;93034.63;5048085;28;20056;-83
2021/07/03 05:23:03;;;;;;;1.48;0.70;;;;;;;17.64;75.46;93044.03;5050429;28;20424;-83
2021/07/03 05:25:30;;;;;;;0.75;0.50;;;;;;;17.73;74.42;93037.28;5050188;28;20045;-83
2021/07/03 05:27:57;;;;;;;1.00;0.80;;;;;;;17.88;73.11;93036.50;5030241;28;20065;-84
2021/07/03 05:30:24;;;;;;;1.35;1.05;;;;;;;18.18;72.91;93029.00;5030176;28;20497;-83
2021/07/03 05:32:50;;;;;;;1.77;1.08;;;;;;;18.16;72.99;93038.91;5030439;28;20049;-83
2021/07/03 05:35:17;;;;;;;1.08;0.73;;;;;;;18.10;73.11;93042.53;5030166;28;20064;-82
2021/07/03 05:37:45;;;;;;;2.75;0.88;;;;;;;17.97;74.20;93036.00;5011708;28;20057;-82
2021/07/03 05:40:14;;;;;;;1.63;0.68;;;;;;;18.32;71.86;93044.84;5010490;28;20053;-83
2021/07/03 05:42:41;;;;;;;1.33;0.60;;;;;;;18.49;71.07;93043.78;5011372;28;20084;-82
2021/07/03 05:45:09;;;;;;;5.03;1.05;;;;;;;18.11;71.66;93012.91;5014261;28;20041;-82
2021/07/03 05:47:37;;;;;;;1.80;0.88;;;;;;;18.36;72.41;93032.09;5013945;28;20480;-82
2021/07/03 05:50:06;;;;;;;1.45;1.10;;;;;;;18.34;70.76;93034.19;5014058;28;20052;-82
2021/07/03 05:52:33;;;;;;;3.17;0.98;;;;;;;18.22;70.55;93032.66;5013973;28;20053;-82
2021/07/03 05:55:01;;;;;;;1.42;0.80;;;;;;;18.25;70.63;93018.34;5013030;28;20096;-82
2021/07/03 05:57:28;;;;;;;3.38;1.20;;;;;;;18.06;72.11;93055.28;5013721;28;20057;-82
2021/07/03 05:59:55;;;;;;;2.15;0.88;;;;;;;17.65;72.84;93050.78;5013628;28;20060;-84
2021/07/03 06:02:22;;;;;;;2.47;1.40;;;;;;;17.45;74.26;93048.94;5028520;28;20064;-82
2021/07/03 06:04:49;;;;;;;8.35;2.13;;;;;;;17.59;73.94;93065.56;5033509;28;20064;-83
2021/07/03 06:07:16;;;;;;;2.03;1.52;;;;;;;17.73;73.67;93052.88;5033447;28;20049;-82
2021/07/03 06:09:42;;;;;;;2.58;1.00;;;;;;;17.84;72.22;93039.91;5020609;28;20048;-83
2021/07/03 06:12:11;;;;;;;6.85;1.27;;;;;;;18.18;71.84;93062.81;5021879;28;20041;-83
2021/07/03 06:14:38;;;;;;;1.23;0.77;;;;;;;17.79;72.75;93068.47;5024621;28;20045;-82
2021/07/03 06:17:04;;;;;;;1.33;0.70;;;;;;;17.71;73.39;93061.97;5013427;28;20061;-83
2021/07/03 06:19:31;;;;;;;1.67;1.02;;;;;;;17.46;73.75;93053.09;5013514;28;20414;-82
2021/07/03 06:21:58;;;;;;;0.73;0.52;;;;;;;17.79;73.50;93051.06;5025805;28;20045;-83
2021/07/03 06:24:25;;;;;;;1.63;1.02;;;;;;;18.04;71.97;93052.13;5031905;28;20095;-82
2021/07/03 06:26:52;;;;;;;2.17;1.05;;;;;;;17.78;73.02;93059.91;5032971;28;20057;-82
2021/07/03 06:29:20;;;;;;;2.10;1.45;;;;;;;17.99;71.71;93067.69;5033065;28;20056;-82
2021/07/03 06:31:47;;;;;;;2.15;0.82;;;;;;;18.34;70.25;93068.00;5028294;28;20485;-83
2021/07/03 06:34:13;;;;;;;1.48;0.65;;;;;;;18.44;68.14;93068.00;5023099;28;20064;-82
2021/07/03 06:36:40;;;;;;;5.55;2.13;;;;;;;18.67;67.63;93069.25;5031170;28;20053;-82
2021/07/03 06:39:07;;;;;;;1.80;1.13;;;;;;;18.97;66.83;93051.22;5032909;28;20050;-82
2021/07/03 06:41:34;;;;;;;1.65;1.08;;;;;;;19.32;65.84;93067.00;5032942;28;20123;-82
2021/07/03 06:44:01;;;;;;;1.85;1.15;;;;;;;19.40;65.32;93071.66;5032900;28;20041;-82
2021/07/03 06:46:30;;;;;;;1.42;1.17;;;;;;;19.36;64.69;93063.56;5032682;28;20139;-82
2021/07/03 06:48:56;;;;;;;1.30;0.80;;;;;;;19.14;64.81;93063.16;5032112;28;20064;-82
2021/07/03 06:51:23;;;;;;;4.25;0.98;;;;;;;19.19;64.36;93070.94;5012508;28;20046;-82
2021/07/03 06:53:53;;;;;;;2.00;1.15;;;;;;;19.32;66.12;93069.59;5012336;28;20548;-82
2021/07/03 06:56:20;;;;;;;1.08;0.73;;;;;;;19.35;64.03;93067.22;5012516;28;20525;-84
2021/07/03 06:58:47;;;;;;;2.25;1.25;;;;;;;19.41;63.43;93068.00;5012605;28;20454;-82
2021/07/03 07:01:14;;;;;;;1.45;0.95;;;;;;;19.30;64.26;93066.50;5012661;28;20108;-86
2021/07/03 07:03:42;;;;;;;0.90;0.43;;;;;;;19.21;62.85;93063.66;5012701;28;20050;-90
2021/07/03 07:06:09;;;;;;;1.27;0.85;;;;;;;19.11;62.95;93059.25;5012306;28;20505;-82
2021/07/03 07:08:36;;;;;;;3.90;1.88;;;;;;;19.09;62.30;93062.16;5012377;28;20505;-80
2021/07/03 07:11:03;;;;;;;1.25;1.00;;;;;;;18.93;62.93;93066.59;5024003;28;20041;-82
2021/07/03 07:13:30;;;;;;;1.08;0.82;;;;;;;18.93;64.54;93056.16;5014284;28;20510;-82
2021/07/03 07:15:57;;;;;;;2.38;0.95;;;;;;;18.87;64.66;93059.03;5012484;28;20049;-84
2021/07/03 07:18:24;;;;;;;1.10;0.93;;;;;;;18.84;65.06;93060.34;5012278;28;20494;-82
2021/07/03 07:20:52;;;;;;;1.88;1.20;;;;;;;18.78;65.58;93066.63;5012129;28;20064;-82
2021/07/03 07:23:19;;;;;;;2.05;1.35;;;;;;;18.87;65.19;93062.44;5012062;28;20115;-82
2021/07/03 07:25:47;;;;;;;0.93;0.80;;;;;;;18.84;64.96;93060.34;5012055;28;20049;-89
2021/07/03 07:28:14;;;;;;;2.30;1.20;;;;;;;18.89;65.01;93052.53;5012028;28;20045;-81
2021/07/03 07:30:41;;;;;;;1.60;0.70;;;;;;;19.03;64.42;93055.38;5012057;28;20529;-81
2021/07/03 07:33:07;;;;;;;1.45;1.00;;;;;;;19.06;64.33;93047.06;5011924;28;20050;-82
2021/07/03 07:35:34;;;;;;;2.90;1.27;;;;;;;19.17;64.34;93050.38;5012207;28;20060;-82
2021/07/03 07:38:03;;;;;;;0.88;0.70;;;;;;;19.28;63.04;93053.72;5012117;28;20583;-80
2021/07/03 07:40:30;;;;;;;1.27;0.60;;;;;;;19.38;62.80;93055.50;5012037;28;20054;-82
2021/07/03 07:42:56;;;;;;;3.05;1.25;;;;;;;19.27;63.86;93044.38;5011916;28;20053;-81
2021/07/03 07:45:23;;;;;;;1.15;0.93;;;;;;;19.36;63.47;93037.53;5011730;28;20064;-81
2021/07/03 07:47:50;;;;;;;1.48;0.90;;;;;;;19.89;62.13;93049.22;5011666;28;20136;-83
2021/07/03 07:50:17;;;;;;;1.02;0.70;;;;;;;20.05;60.44;93043.91;5011705;28;20053;-81
2021/07/03 07:52:44;;;;;;;2.28;1.08;;;;;;;20.17;61.01;93046.16;5011762;28;20050;-81
2021/07/03 07:55:13;;;;;;;1.17;0.73;;;;;;;20.11;60.64;93044.66;5011783;28;20042;-80
2021/07/03 07:57:40;;;;;;;1.20;0.80;;;;;;;19.97;58.77;93060.91;5011533;28;20521;-83
2021/07/03 08:00:09;;;;;;;1.33;0.68;;;;;;;19.48;61.25;93060.66;5011453;28;20050;-81
2021/07/03 08:02:36;;;;;;;2.05;1.55;;;;;;;19.30;62.16;93058.69;5011448;28;20128;-81
2021/07/03 08:05:03;;;;;;;1.00;0.70;;;;;;;19.69;61.28;93060.56;5011629;28;20053;-82
2021/07/03 08:07:31;;;;;;;1.08;0.85;;;;;;;19.28;61.89;93058.94;5010556;28;20505;-81
2021/07/03 08:09:57;;;;;;;1.17;0.95;;;;;;;18.66;63.09;93056.50;5011285;28;20046;-81
2021/07/03 08:12:25;;;;;;;2.33;1.30;;;;;;;19.08;62.91;93054.59;5018126;28;20045;-81
2021/07/03 08:14:52;;;;;;;2.05;1.02;;;;;;;19.28;62.22;93047.72;5031448;28;20049;-81
2021/07/03 08:17:19;;;;;;;1.48;1.00;;;;;;;19.74;62.52;93054.53;5031043;28;20061;-81
2021/07/03 08:19:46;;;;;;;3.20;1.88;;;;;;;19.62;62.55;93045.22;5031100;28;20103;-81
2021/07/03 08:22:13;;;;;;;1.70;1.15;;;;;;;19.84;61.04;93040.63;5031119;28;20045;-81
2021/07/03 08:24:39;;;;;;;4.32;0.75;;;;;;;20.05;61.35;93036.09;5031002;28;20053;-81
2021/07/03 08:27:06;;;;;;;2.20;1.25;;;;;;;20.02;60.00;93036.63;5031006;28;20437;-82
2021/07/03 08:29:35;;;;;;;1.33;0.90;;;;;;;20.06;59.95;93035.03;5030819;28;20053;-81
2021/07/03 08:32:01;;;;;;;2.45;1.20;;;;;;;19.08;63.60;93029.31;5030915;28;20387;-80
2021/07/03 08:34:28;;;;;;;5.40;1.30;;;;;;;19.49;62.73;93033.56;5030892;28;20538;-81
2021/07/03 08:36:55;;;;;;;1.63;0.85;;;;;;;19.79;61.54;93048.50;5030785;28;20395;-81
2021/07/03 08:39:22;;;;;;;1.75;1.13;;;;;;;19.62;58.93;93026.97;5030818;28;20057;-81
2021/07/03 08:41:48;;;;;;;1.35;1.08;;;;;;;20.20;58.84;93039.63;5030603;28;20050;-80
2021/07/03 08:44:17;;;;;;;1.60;1.13;;;;;;;20.30;58.18;93029.09;5030952;28;20395;-80
2021/07/03 08:46:45;;;;;;;5.18;1.33;;;;;;;20.55;58.36;93035.16;5030656;28;20050;-82
2021/07/03 08:49:13;;;;;;;1.13;0.75;;;;;;;19.90;61.33;93035.13;5030747;28;20057;-78
2021/07/03 08:51:42;;;;;;;0.77;0.45;;;;;;;19.84;59.96;93035.44;5030521;28;20104;-80
2021/07/03 08:54:09;;;;;;;1.30;0.70;;;;;;;19.61;61.53;93041.06;5030687;28;20136;-80
2021/07/03 08:56:36;;;;;;;1.50;1.20;;;;;;;20.01;61.60;93043.66;5030243;28;20060;-82
2021/07/03 08:59:14;;;;;;;3.35;1.98;;;;;;;20.12;59.54;93020.13;5030600;28;20050;-83
2021/07/03 09:01:50;;;;;;;2.58;1.20;;;;;;;20.70;57.97;93032.34;5030733;28;20061;-82
2021/07/03 09:04:16;;;;;;;2.60;1.02;;;;;;;21.38;56.37;93020.41;5025931;28;20049;-81
2021/07/03 09:06:43;;;;;;;1.80;1.17;;;;;;;21.91;53.60;93032.47;5030662;28;20049;-84
2021/07/03 09:09:10;;;;;;;1.88;0.60;;;;;;;21.99;51.88;93031.81;5030392;28;20054;-81
2021/07/03 09:11:37;;;;;;;1.65;1.02;;;;;;;22.11;52.96;93020.91;5029997;28;20053;-88
2021/07/03 09:14:07;;;;;;;1.55;1.10;;;;;;;21.96;52.92;93006.25;5011083;28;20429;-80
2021/07/03 09:16:36;;;;;;;1.40;0.82;;;;;;;22.20;52.95;93026.28;5010638;28;20565;-81
2021/07/03 09:19:05;;;;;;;1.20;0.80;;;;;;;21.74;52.86;93023.31;5014090;28;20100;-81
2021/07/03 09:21:33;;;;;;;1.00;0.70;;;;;;;21.23;53.95;93022.94;5014339;28;20096;-81
2021/07/03 09:24:01;;;;;;;1.88;1.35;;;;;;;21.30;55.57;93025.16;5014422;28;20096;-83
2021/07/03 09:26:28;;;;;;;0.95;0.57;;;;;;;20.87;56.21;93010.28;5014597;28;20140;-86
2021/07/03 09:28:55;;;;;;;1.17;0.73;;;;;;;20.24;58.05;93032.81;5014577;28;20057;-82
2021/07/03 09:31:22;;;;;;;1.67;1.23;;;;;;;20.51;59.40;93039.34;5014340;28;20050;-82
2021/07/03 09:33:50;;;;;;;1.50;0.77;;;;;;;20.80;57.42;93020.25;5014144;28;20049;-80
2021/07/03 09:36:26;;;;;;;3.25;1.42;;;;;;;21.25;55.49;93032.31;5014292;28;20100;-83
2021/07/03 09:38:54;;;;;;;1.70;1.20;;;;;;;21.43;55.75;93025.56;5024022;28;20052;-80
2021/07/03 09:41:23;;;;;;;1.60;1.02;;;;;;;21.64;56.04;93031.28;5034107;28;20046;-81
2021/07/03 09:43:57;;;;;;;1.45;1.02;;;;;;;22.31;53.07;93031.34;5033911;28;20052;-84
2021/07/03 09:46:25;;;;;;;1.00;0.50;;;;;;;22.48;51.91;93028.94;5033683;28;20091;-81
2021/07/03 09:48:53;;;;;;;2.42;0.70;;;;;;;21.79;52.56;93013.84;5033967;28;20057;-87
2021/07/03 09:51:29;;;;;;;1.00;0.80;;;;;;;21.91;52.74;93016.00;5033816;28;20065;-82
2021/07/03 09:53:57;;;;;;;2.42;1.38;;;;;;;22.39;51.88;93028.06;5033799;28;20053;-87
2021/07/03 09:56:24;;;;;;;1.98;1.10;;;;;;;22.61;51.01;93022.22;5033544;28;20069;-89
2021/07/03 09:58:51;;;;;;;1.33;0.80;;;;;;;22.66;50.58;93032.59;5033389;28;20096;-86
2021/07/03 10:01:18;;;;;;;1.27;0.70;;;;;;;22.25;51.56;93030.63;5033465;28;20486;-85
2021/07/03 10:03:45;;;;;;;3.00;1.15;;;;;;;21.78;53.22;93018.28;5033830;28;20072;-81
2021/07/03 10:06:16;;;;;;;1.77;0.90;;;;;;;22.15;52.13;93023.75;5033417;28;20490;-84
2021/07/03 10:08:48;;;;;;;2.08;1.50;;;;;;;22.01;53.46;93028.94;5033408;28;20050;-80
2021/07/03 10:11:20;;;;;;;1.55;0.93;;;;;;;22.06;51.46;93025.44;5020174;28;20057;-78
2021/07/03 10:13:48;;;;;;;2.55;1.52;;;;;;;21.74;52.67;93015.47;5013424;28;20046;-81
2021/07/03 10:16:22;;;;;;;1.42;0.98;;;;;;;21.82;52.31;93014.06;5013562;28;20054;-79
2021/07/03 10:18:49;;;;;;;2.95;1.73;;;;;;;21.99;52.36;93016.13;5013452;28;20472;-80
2021/07/03 10:21:21;;;;;;;1.33;0.85;;;;;;;22.06;51.36;93012.38;5013293;28;20050;-81
2021/07/03 10:23:51;;;;;;;3.30;1.45;;;;;;;22.29;50.26;93002.84;5013606;28;20093;-81
2021/07/03 10:26:18;;;;;;;1.48;1.10;;;;;;;22.20;49.80;92986.25;5019323;28;20119;-79
2021/07/03 10:28:51;;;;;;;2.40;1.17;;;;;;;22.60;49.19;92999.72;5032638;28;20180;-80
2021/07/03 10:31:18;;;;;;;1.27;0.77;;;;;;;22.67;47.94;93000.09;5032770;28;20509;-81
2021/07/03 10:33:47;;;;;;;1.13;0.80;;;;;;;22.80;46.86;93003.78;5032873;28;20045;-82
2021/07/03 10:36:26;;;;;;;1.27;0.80;;;;;;;22.78;48.34;92999.91;5032889;28;20095;-82
2021/07/03 10:38:55;;;;;;;1.42;0.98;;;;;;;22.73;48.50;93008.63;5033068;28;20108;-82
2021/07/03 10:41:24;;;;;;;1.60;0.82;;;;;;;22.63;49.67;93003.59;5032903;28;20053;-81
2021/07/03 10:43:52;;;;;;;1.40;0.70;;;;;;;22.53;49.14;93009.78;5033179;28;20049;-80
2021/07/03 10:46:30;;;;;;;0.93;0.60;;;;;;;22.46;48.10;92985.81;5032785;28;20053;-85
2021/07/03 10:48:59;;;;;;;1.45;0.93;;;;;;;22.43;47.23;92993.19;5032716;28;20055;-82
2021/07/03 10:51:31;;;;;;;3.22;0.63;;;;;;;22.22;48.81;93005.81;5032785;28;20096;-86
2021/07/03 10:54:12;;;;;;;1.15;0.60;;;;;;;21.93;49.40;92996.34;5032522;28;20076;-91
2021/07/03 10:56:45;;;;;;;1.30;0.75;;;;;;;22.20;50.06;92989.66;5032767;28;20050;-85
2021/07/03 10:59:15;;;;;;;1.30;0.88;;;;;;;22.29;49.96;92963.59;5032361;28;20052;-82
2021/07/03 11:01:41;;;;;;;1.55;1.15;;;;;;;22.66;50.49;92995.16;5032262;28;20056;-82
2021/07/03 11:04:21;;;;;;;1.88;0.70;;;;;;;22.77;50.24;92990.50;5032286;28;20096;-81
2021/07/03 11:06:50;;;;;;;4.28;1.60;;;;;;;22.31;50.57;92994.72;5032381;28;20049;-81
2021/07/03 11:09:26;;;;;;;3.63;1.20;;;;;;;22.45;50.58;92990.25;5032293;28;20490;-88
2021/07/03 11:11:55;;;;;;;1.40;0.63;;;;;;;22.47;50.78;92987.34;5029360;28;20049;-81
2021/07/03 11:14:22;;;;;;;2.28;1.55;;;;;;;22.47;48.79;92988.16;5012670;28;20081;-85
2021/07/03 11:16:53;;;;;;;5.85;1.17;;;;;;;21.77;50.91;92985.38;5012248;28;20597;-80
2021/07/03 11:19:24;;;;;;;1.52;1.20;;;;;;;21.83;51.17;92992.06;5012319;28;20425;-81
2021/07/03 11:21:52;;;;;;;1.92;1.05;;;;;;;22.30;49.88;92978.22;5012149;28;20077;-83
2021/07/03 11:24:19;;;;;;;3.40;1.08;;;;;;;22.49;49.26;92980.00;5012080;28;20509;-81
2021/07/03 11:26:47;;;;;;;1.08;0.80;;;;;;;22.50;48.50;92986.78;5012298;28;20061;-81
2021/07/03 11:29:24;;;;;;;1.90;1.42;;;;;;;21.98;49.05;92991.03;5012112;28;20050;-84
2021/07/03 11:31:51;;;;;;;2.90;1.38;;;;;;;21.54;50.24;92986.97;5012218;28;20418;-82
2021/07/03 11:34:18;;;;;;;1.73;1.08;;;;;;;21.05;51.53;92987.88;5012092;28;20049;-86
2021/07/03 11:36:55;;;;;;;1.42;1.10;;;;;;;20.27;54.27;92988.69;5011813;28;20065;-83
2021/07/03 11:39:22;;;;;;;2.05;1.25;;;;;;;20.78;53.34;92986.59;5012137;28;20061;-82